createdAt,value
2023-04-14T00:03:32.230Z,26
2023-04-14T00:09:24.988Z,25.8
2023-04-14T00:15:17.590Z,25.4
2023-04-14T00:21:10.384Z,25.2
2023-04-14T00:27:01.533Z,24.4
2023-04-14T00:32:38.314Z,29.3
2023-04-14T00:38:29.993Z,27.9
2023-04-14T00:44:21.877Z,26.4
2023-04-14T00:50:13.565Z,26.1
2023-04-14T00:55:50.298Z,25.9
2023-04-14T01:01:27.082Z,25.7
2023-04-14T01:07:20.526Z,25.4
2023-04-14T01:13:11.954Z,25.1
2023-04-14T01:19:04.106Z,24.4
2023-04-14T01:24:39.896Z,29.4
2023-04-14T01:30:31.706Z,27.5
2023-04-14T01:36:24.171Z,26.4
2023-04-14T01:42:15.752Z,26
2023-04-14T01:47:52.599Z,25.9
2023-04-14T01:53:45.208Z,25.6
2023-04-14T01:59:36.728Z,25.3
2023-04-14T02:05:29.895Z,25.1
2023-04-14T02:11:21.254Z,25.7
2023-04-14T02:17:12.172Z,29.9
2023-04-14T02:23:04.028Z,27.1
2023-04-14T02:28:55.690Z,26.3
2023-04-14T02:34:46.349Z,26
2023-04-14T02:40:37.332Z,25.8
2023-04-14T02:46:28.993Z,25.6
2023-04-14T02:52:20.243Z,25.3
2023-04-14T02:58:11.890Z,25
2023-04-14T03:04:05.073Z,27.1
2023-04-14T03:09:55.718Z,30.4
2023-04-14T03:15:32.048Z,26.7
2023-04-14T03:21:07.651Z,26.1
2023-04-14T03:27:00.186Z,25.9
2023-04-14T03:32:52.079Z,25.8
2023-04-14T03:38:43.427Z,25.5
2023-04-14T03:44:35.802Z,25.2
2023-04-14T03:50:32.110Z,24.9
2023-04-14T03:56:25.844Z,27.9
2023-04-14T04:02:18.007Z,29.3
2023-04-14T04:08:12.001Z,26.6
2023-04-14T04:14:04.006Z,26.2
2023-04-14T04:19:57.346Z,26
2023-04-14T04:25:48.409Z,25.8
2023-04-14T04:31:55.441Z,25.5
2023-04-14T04:37:47.379Z,25.1
2023-04-14T04:43:23.766Z,24.8
2023-04-14T04:49:00.308Z,28.8
2023-04-14T04:54:35.647Z,28.1
2023-04-14T04:59:57.964Z,26.5
2023-04-14T05:05:35.537Z,26.1
2023-04-14T05:11:13.797Z,25.8
2023-04-14T05:16:50.685Z,25.6
2023-04-14T05:22:26.785Z,25.3
2023-04-14T05:28:41.138Z,24.9
2023-04-14T05:34:05.188Z,24.6
2023-04-14T05:39:42.045Z,28.6
2023-04-14T05:45:33.773Z,28.3
2023-04-14T05:51:10.052Z,26.4
2023-04-14T05:56:47.739Z,26
2023-04-14T06:02:42.443Z,25.8
2023-04-14T06:08:22.244Z,25.5
2023-04-14T06:14:13.960Z,25.3
2023-04-14T06:19:34.800Z,24.9
2023-04-14T06:25:26.297Z,24.6
2023-04-14T06:31:02.792Z,29.1
2023-04-14T06:37:07.947Z,27.9
2023-04-14T06:42:59.196Z,26.2
2023-04-14T06:48:52.549Z,25.8
2023-04-14T06:54:44.238Z,25.6
2023-04-14T07:00:36.425Z,25.3
2023-04-14T07:06:31.172Z,25.1
2023-04-14T07:12:22.576Z,24.8
2023-04-14T07:18:16.468Z,28.9
2023-04-14T07:23:52.558Z,28.4
2023-04-14T07:29:57.516Z,26.2
2023-04-14T07:36:01.048Z,25.7
2023-04-14T07:41:52.848Z,25.5
2023-04-14T07:47:28.901Z,25.3
2023-04-14T07:53:22.010Z,25
2023-04-14T08:04:59.273Z,29.5
2023-04-14T08:10:51.124Z,26.2
2023-04-14T08:16:11.625Z,25.6
2023-04-14T08:21:32.854Z,25.4
2023-04-14T08:27:09.686Z,24.9
2023-04-14T08:33:02.271Z,30.8
2023-04-14T08:39:53.355Z,26.7
2023-04-14T08:45:45.876Z,25.7
2023-04-14T08:51:39.180Z,25.4
2023-04-14T08:57:15.593Z,25.3
2023-04-14T09:03:09.672Z,30.8
2023-04-14T09:09:03.450Z,26.7
2023-04-14T09:14:54.333Z,25.6
2023-04-14T09:22:41.843Z,25.4
2023-04-14T09:28:33.058Z,25.1
2023-04-14T09:34:09.045Z,24.9
2023-04-14T09:39:45.115Z,24.7
2023-04-14T09:45:36.662Z,24.4
2023-04-14T09:51:13.087Z,24.2
2023-04-14T09:57:06.388Z,23.9
2023-04-14T10:02:59.387Z,23.7
2023-04-14T10:08:37.130Z,23.5
2023-04-14T10:14:28.639Z,23.3
2023-04-14T10:20:21.042Z,23.1
2023-04-14T10:26:13.986Z,22.9
2023-04-14T10:32:07.847Z,22.8
2023-04-14T10:38:00.013Z,22.6
2023-04-14T10:43:35.761Z,22.5
2023-04-14T10:49:27.156Z,22.4
2023-04-14T10:55:05.023Z,22.3
2023-04-14T11:01:11.626Z,22.2
2023-04-14T11:07:05.564Z,22
2023-04-14T11:12:41.202Z,21.9
2023-04-14T11:18:46.202Z,21.8
2023-04-14T11:24:37.634Z,21.7
2023-04-14T11:30:29.266Z,21.6
2023-04-14T11:36:22.627Z,21.6
2023-04-14T11:41:58.988Z,21.5
2023-04-14T11:47:51.105Z,21.4
2023-04-14T11:53:27.046Z,21.3
2023-04-14T11:59:19.300Z,21.3
2023-04-14T12:04:57.402Z,21.3
2023-04-14T12:10:36.474Z,21.2
2023-04-14T12:21:34.664Z,21.1
2023-04-14T12:27:11.184Z,20.9
2023-04-14T12:33:03.076Z,20.8
2023-04-14T12:38:56.487Z,20.8
2023-04-14T12:44:32.275Z,20.7
2023-04-14T12:50:25.334Z,20.6
2023-04-14T12:56:17.265Z,20.5
2023-04-14T13:02:09.571Z,20.5
2023-04-14T13:08:05.294Z,20.4
2023-04-14T13:13:58.808Z,20.4
2023-04-14T13:20:46.600Z,20.4
2023-04-14T13:26:39.611Z,20.4
2023-04-14T13:32:16.427Z,20.4
2023-04-14T13:38:09.056Z,20.4
2023-04-14T13:44:03.388Z,20.4
2023-04-14T13:49:58.870Z,20.3
2023-04-14T13:55:50.638Z,20.3
2023-04-14T14:01:45.190Z,20.3
2023-04-14T14:07:40.655Z,20.3
2023-04-14T14:13:35.308Z,20.3
2023-04-14T14:19:21.659Z,20.3
2023-04-14T14:25:04.000Z,20.3
2023-04-14T14:31:04.314Z,20.3
2023-04-14T14:36:58.735Z,20.3
2023-04-14T14:42:51.240Z,20.3
2023-04-14T14:48:48.599Z,20.2
2023-04-14T14:54:59.057Z,20.2
2023-04-14T15:00:36.800Z,20.2
2023-04-14T15:06:30.517Z,20.2
2023-04-14T15:12:22.112Z,20.2
2023-04-14T15:18:14.648Z,20.2
2023-04-14T15:24:06.062Z,20.1
2023-04-14T15:29:57.283Z,20.2
2023-04-14T15:35:49.713Z,20.2
2023-04-14T15:41:41.867Z,20.2
2023-04-14T15:47:36.106Z,20.2
2023-04-14T15:53:46.555Z,20.1
2023-04-14T15:59:38.657Z,20.2
2023-04-14T16:05:32.292Z,20.1
2023-04-14T16:11:24.282Z,20.1
2023-04-14T16:17:17.779Z,20.1
2023-04-14T16:23:10.768Z,20.1
2023-04-14T16:29:02.947Z,20.1
2023-04-14T16:34:55.093Z,20.1
2023-04-14T16:40:46.655Z,20.1
2023-04-14T16:46:38.946Z,20.1
2023-04-14T16:52:31.048Z,20.1
2023-04-14T16:58:23.053Z,20.1
2023-04-14T17:04:19.700Z,20.1
2023-04-14T17:10:12.259Z,20.1
2023-04-14T17:16:12.095Z,20.1
2023-04-14T17:22:05.178Z,20.1
2023-04-14T17:27:56.958Z,20.1
2023-04-14T17:33:49.020Z,20.1
2023-04-14T17:39:40.866Z,20.1
2023-04-14T17:45:32.254Z,20.1
2023-04-14T17:51:10.234Z,20.1
2023-04-14T17:57:02.254Z,20.1
2023-04-14T18:02:54.424Z,20.1
2023-04-14T18:08:47.365Z,20.1
2023-04-14T18:14:38.890Z,20.1
2023-04-14T18:20:30.362Z,20.1
2023-04-14T18:26:39.757Z,20.1
2023-04-14T18:32:39.862Z,20.1
2023-04-14T18:38:31.761Z,20.1
2023-04-14T18:44:23.186Z,20.1
2023-04-14T18:49:59.765Z,20.1
2023-04-14T18:56:01.894Z,20.1
2023-04-14T19:01:37.905Z,20.1
2023-04-14T19:07:30.799Z,20.1
2023-04-14T19:13:18.384Z,20.1
2023-04-14T19:18:54.945Z,20.1
2023-04-14T19:24:31.213Z,20.1
2023-04-14T19:30:08.707Z,20
2023-04-14T19:35:45.502Z,20.1
2023-04-14T19:41:37.306Z,20
2023-04-14T19:47:13.855Z,20
2023-04-14T19:53:17.415Z,20
2023-04-14T19:59:10.744Z,20
2023-04-14T20:05:34.284Z,20
2023-04-14T20:11:26.092Z,20
2023-04-14T20:17:17.476Z,20
2023-04-14T20:23:09.434Z,20
2023-04-14T20:29:01.360Z,20
2023-04-14T20:34:53.534Z,20
2023-04-14T20:40:44.594Z,21.4
2023-04-14T20:46:36.256Z,27
2023-04-14T20:52:12.536Z,29.6
2023-04-14T20:58:03.079Z,27.2
2023-04-14T21:03:56.425Z,26.5
2023-04-14T21:09:49.027Z,29.8
2023-04-14T21:19:44.813Z,30.7
2023-04-14T21:25:36.302Z,25.8
2023-04-14T21:31:27.483Z,28.3
2023-04-14T21:37:03.590Z,30.9
2023-04-14T21:42:39.837Z,27.7
2023-04-14T21:48:30.866Z,25.8
2023-04-14T21:54:24.274Z,25.4
2023-04-14T22:01:05.589Z,29
2023-04-14T22:07:08.918Z,30.8
2023-04-14T22:13:01.564Z,26.4
2023-04-14T22:18:38.336Z,25.6
2023-04-14T22:24:13.986Z,25.4
2023-04-14T22:30:06.232Z,28.8
2023-04-14T22:35:27.223Z,31.1
2023-04-14T22:41:19.031Z,26.8
2023-04-14T22:47:11.086Z,25.8
2023-04-14T22:53:03.392Z,25.5
2023-04-14T22:59:00.779Z,26.9
2023-04-14T23:05:04.968Z,30.3
2023-04-14T23:10:57.226Z,27.7
2023-04-14T23:16:47.795Z,25.9
2023-04-14T23:22:38.792Z,25.6
2023-04-14T23:28:31.078Z,25.4
2023-04-14T23:34:07.050Z,28.7
2023-04-14T23:39:58.946Z,30.9
2023-04-14T23:45:50.281Z,26.5
2023-04-14T23:52:40.427Z,25.7
2023-04-14T23:58:25.612Z,25.5
